PWSweather.com
Personal Weather Stations
Station Observations
HAJERN
Hajeren, HvittingfossNO 3647

HajerenHvittingfossNO 3647

Lat: 59.54314324, Lon: 9.95778703

Elevation: 1320

Station Type: Fine Ofset WS 1080

www.hajern.no

High Low Average
Temperature 39.6°F4.2°C 33.3°F0.7°C 36.1°F2.3°C
Dew Point 39.3°F4.1°C 33.0°F0.6°C 35.8°F2.1°C
Winds 17.7 mph 28.5 kmh Calm Calm 9.0 mph NW14.5 kmh NW
Wind Gusts 22.1 mph35.6 kmh -- 13.0 mph20.9 kmh
Humidity 100% 90% 99%
Pressure 29.90 in1012.5 mb 29.65 in1004.1 mb -
Precipitation 0.17 in4.3 mm - -
Hour Temp Dew Point Humidity Winds Wind Gusts Pressure Precip Precip Rate Daily Precip Total
12:00 AM 39.9°F4.4°C 39.7°F4.3°C 99% Calm Calm -- 29.93 in1013.5 mb 0.00 in0.0 mm 0.00 in0.0 mm 0.00 in0.0 mm
12:30 AM 39.7°F4.3°C 39.5°F4.2°C 99% Calm Calm -- 29.92 in1013.2 mb 0.00 in0.0 mm 0.00 in0.0 mm 0.00 in0.0 mm
01:00 AM 39.6°F4.2°C 39.3°F4.1°C 99% Calm Calm 0.7 mph1.1 kmh 29.90 in1012.5 mb 0.02 in0.5 mm 0.04 in1.0 mm 0.02 in0.5 mm
01:30 AM 39.4°F4.1°C 39.1°F3.9°C 99% Calm Calm -- 29.88 in1011.9 mb 0.02 in0.5 mm 0.00 in0.0 mm 0.02 in0.5 mm
02:00 AM 39.2°F4.0°C 38.9°F3.8°C 99% 0.3 mph WNW0.5 kmh WNW 3.1 mph5.0 kmh 29.87 in1011.5 mb 0.00 in0.0 mm 0.00 in0.0 mm 0.02 in0.5 mm
02:30 AM 39.2°F4.0°C 38.9°F3.8°C 99% 2.5 mph NW4.0 kmh NW 3.1 mph5.0 kmh 29.86 in1011.2 mb 0.00 in0.0 mm 0.00 in0.0 mm 0.02 in0.5 mm
03:00 AM 38.7°F3.7°C 38.4°F3.6°C 99% 4.7 mph NW7.6 kmh NW 6.9 mph11.1 kmh 29.85 in1010.8 mb 0.00 in0.0 mm 0.00 in0.0 mm 0.02 in0.5 mm
03:30 AM 38.3°F3.5°C 38.0°F3.3°C 99% 4.5 mph NW7.2 kmh NW 6.9 mph11.1 kmh 29.83 in1010.2 mb 0.00 in0.0 mm 0.00 in0.0 mm 0.02 in0.5 mm
04:00 AM 38.1°F3.4°C 37.9°F3.3°C 99% 3.8 mph NW6.1 kmh NW 4.5 mph7.2 kmh 29.82 in1009.8 mb 0.00 in0.0 mm 0.00 in0.0 mm 0.02 in0.5 mm
04:30 AM 37.9°F3.3°C 37.7°F3.2°C 99% 6.7 mph NW10.8 kmh NW 9.8 mph15.8 kmh 29.81 in1009.5 mb 0.00 in0.0 mm 0.00 in0.0 mm 0.02 in0.5 mm
05:00 AM 37.8°F3.2°C 37.5°F3.1°C 99% 7.7 mph WNW12.4 kmh WNW 13.0 mph20.9 kmh 29.80 in1009.1 mb 0.00 in0.0 mm 0.00 in0.0 mm 0.02 in0.5 mm
05:30 AM 37.8°F3.2°C 37.5°F3.1°C 99% 7.2 mph WNW11.6 kmh WNW 11.4 mph18.3 kmh 29.79 in1008.8 mb 0.02 in0.5 mm 0.04 in1.0 mm 0.04 in1.0 mm
06:00 AM 37.6°F3.1°C 37.3°F2.9°C 99% 6.2 mph NW10.0 kmh NW 9.2 mph14.8 kmh 29.78 in1008.5 mb 0.02 in0.5 mm 0.00 in0.0 mm 0.04 in1.0 mm
06:30 AM 37.4°F3.0°C 37.1°F2.8°C 99% 6.7 mph NW10.8 kmh NW 9.2 mph14.8 kmh 29.78 in1008.5 mb 0.00 in0.0 mm 0.00 in0.0 mm 0.04 in1.0 mm
07:00 AM 37.0°F2.8°C 36.8°F2.7°C 99% 6.5 mph NW10.5 kmh NW 8.3 mph13.4 kmh 29.76 in1007.8 mb 0.00 in0.0 mm 0.00 in0.0 mm 0.04 in1.0 mm
07:30 AM 37.0°F2.8°C 36.8°F2.7°C 99% 6.3 mph NW10.1 kmh NW 8.3 mph13.4 kmh 29.77 in1008.1 mb 0.00 in0.0 mm 0.00 in0.0 mm 0.04 in1.0 mm
08:00 AM 37.2°F2.9°C 37.0°F2.8°C 99% 5.2 mph NW8.4 kmh NW 7.6 mph12.2 kmh 29.76 in1007.8 mb 0.00 in0.0 mm 0.00 in0.0 mm 0.04 in1.0 mm
08:30 AM 37.0°F2.8°C 36.8°F2.7°C 99% 4.6 mph NNW7.4 kmh NNW 9.2 mph14.8 kmh 29.75 in1007.5 mb 0.00 in0.0 mm 0.00 in0.0 mm 0.04 in1.0 mm
09:00 AM 37.6°F3.1°C 37.3°F2.9°C 99% 5.4 mph NW8.7 kmh NW 7.6 mph12.2 kmh 29.74 in1007.1 mb 0.00 in0.0 mm 0.00 in0.0 mm 0.04 in1.0 mm
09:30 AM 38.5°F3.6°C 38.2°F3.4°C 99% 8.8 mph WNW14.2 kmh WNW 10.7 mph17.2 kmh 29.73 in1006.8 mb 0.00 in0.0 mm 0.00 in0.0 mm 0.04 in1.0 mm
10:00 AM 39.2°F4.0°C 36.5°F2.5°C 90% 14.9 mph NW24.0 kmh NW 19.0 mph30.6 kmh 29.73 in1006.8 mb 0.00 in0.0 mm 0.00 in0.0 mm 0.04 in1.0 mm
10:30 AM 37.9°F3.3°C 35.6°F2.0°C 91% 14.5 mph WNW23.3 kmh WNW 20.6 mph33.2 kmh 29.72 in1006.4 mb 0.00 in0.0 mm 0.00 in0.0 mm 0.04 in1.0 mm
11:00 AM 37.0°F2.8°C 37.0°F2.8°C 100% 11.3 mph NW18.2 kmh NW 15.2 mph24.5 kmh 29.71 in1006.1 mb 0.00 in0.0 mm 0.00 in0.0 mm 0.04 in1.0 mm
11:30 AM 37.2°F2.9°C 37.0°F2.8°C 99% 11.8 mph W19.0 kmh W 19.0 mph30.6 kmh 29.71 in1006.1 mb 0.02 in0.5 mm 0.04 in1.0 mm 0.06 in1.5 mm
12:00 PM 36.7°F2.6°C 36.4°F2.4°C 99% 10.4 mph WNW16.7 kmh WNW 13.0 mph20.9 kmh 29.70 in1005.8 mb 0.02 in0.5 mm 0.00 in0.0 mm 0.06 in1.5 mm
12:30 PM 36.7°F2.6°C 36.4°F2.4°C 99% 7.2 mph NW11.6 kmh NW 9.2 mph14.8 kmh 29.69 in1005.4 mb 0.00 in0.0 mm 0.00 in0.0 mm 0.06 in1.5 mm
01:00 PM 37.0°F2.8°C 36.8°F2.7°C 99% 7.5 mph WNW12.1 kmh WNW 11.4 mph18.3 kmh 29.68 in1005.1 mb 0.00 in0.0 mm 0.00 in0.0 mm 0.06 in1.5 mm
01:30 PM 36.0°F2.2°C 35.7°F2.1°C 99% 9.3 mph NW15.0 kmh NW 13.0 mph20.9 kmh 29.68 in1005.1 mb 0.02 in0.5 mm 0.04 in1.0 mm 0.08 in2.0 mm
02:00 PM 35.8°F2.1°C 35.5°F1.9°C 99% 10.8 mph NW17.4 kmh NW 16.8 mph27.0 kmh 29.67 in1004.7 mb 0.04 in1.0 mm 0.04 in1.0 mm 0.09 in2.3 mm
02:30 PM 35.1°F1.7°C 34.8°F1.6°C 99% 9.8 mph NW15.8 kmh NW 14.5 mph23.3 kmh 29.67 in1004.7 mb 0.04 in1.0 mm 0.00 in0.0 mm 0.11 in2.8 mm
03:00 PM 35.4°F1.9°C 35.2°F1.8°C 99% 6.9 mph WNW11.1 kmh WNW 9.2 mph14.8 kmh 29.65 in1004.1 mb 0.04 in1.0 mm 0.00 in0.0 mm 0.13 in3.3 mm
03:30 PM 35.2°F1.8°C 35.0°F1.7°C 99% 9.5 mph NW15.3 kmh NW 13.6 mph21.9 kmh 29.66 in1004.4 mb 0.02 in0.5 mm 0.00 in0.0 mm 0.13 in3.3 mm
04:00 PM 33.4°F0.8°C 33.2°F0.7°C 99% 9.5 mph NNW15.3 kmh NNW 13.6 mph21.9 kmh 29.65 in1004.1 mb 0.02 in0.5 mm 0.00 in0.0 mm 0.15 in3.8 mm
04:30 PM 33.8°F1.0°C 33.6°F0.9°C 99% 11.9 mph NW19.2 kmh NW 16.8 mph27.0 kmh 29.66 in1004.4 mb 0.04 in1.0 mm 0.04 in1.0 mm 0.17 in4.3 mm
05:00 PM 33.8°F1.0°C 33.6°F0.9°C 99% 9.7 mph NW15.6 kmh NW 14.5 mph23.3 kmh 29.65 in1004.1 mb 0.02 in0.5 mm 0.00 in0.0 mm 0.17 in4.3 mm
05:30 PM 33.6°F0.9°C 33.4°F0.8°C 99% 10.4 mph NW16.7 kmh NW 13.0 mph20.9 kmh 29.65 in1004.1 mb 0.00 in0.0 mm 0.00 in0.0 mm 0.17 in4.3 mm
06:00 PM 33.6°F0.9°C 33.4°F0.8°C 99% 15.2 mph NW24.5 kmh NW 19.7 mph31.7 kmh 29.65 in1004.1 mb 0.00 in0.0 mm 0.00 in0.0 mm 0.17 in4.3 mm
06:30 PM 33.6°F0.9°C 33.4°F0.8°C 99% 7.9 mph NNW12.7 kmh NNW 10.7 mph17.2 kmh 29.66 in1004.4 mb 0.00 in0.0 mm 0.00 in0.0 mm 0.17 in4.3 mm
07:00 PM 33.6°F0.9°C 33.4°F0.8°C 99% 13.1 mph N21.1 kmh N 19.7 mph31.7 kmh 29.66 in1004.4 mb 0.00 in0.0 mm 0.00 in0.0 mm 0.17 in4.3 mm
07:30 PM 33.6°F0.9°C 33.4°F0.8°C 99% 13.0 mph NW20.9 kmh NW 17.4 mph28.0 kmh 29.66 in1004.4 mb 0.00 in0.0 mm 0.00 in0.0 mm 0.17 in4.3 mm
08:00 PM 33.4°F0.8°C 33.2°F0.7°C 99% 14.2 mph NW22.9 kmh NW 19.0 mph30.6 kmh 29.66 in1004.4 mb 0.00 in0.0 mm 0.00 in0.0 mm 0.17 in4.3 mm
08:30 PM 33.4°F0.8°C 33.2°F0.7°C 99% 15.4 mph NNW24.8 kmh NNW 19.0 mph30.6 kmh 29.66 in1004.4 mb 0.00 in0.0 mm 0.00 in0.0 mm 0.17 in4.3 mm
09:00 PM 33.3°F0.7°C 33.0°F0.6°C 99% 17.7 mph NNW28.5 kmh NNW 22.1 mph35.6 kmh 29.67 in1004.7 mb 0.00 in0.0 mm 0.00 in0.0 mm 0.17 in4.3 mm
09:30 PM 33.4°F0.8°C 33.2°F0.7°C 99% 15.9 mph NW25.6 kmh NW 20.6 mph33.2 kmh 29.68 in1005.1 mb 0.00 in0.0 mm 0.00 in0.0 mm 0.17 in4.3 mm
10:00 PM 33.4°F0.8°C 33.2°F0.7°C 99% 14.4 mph N23.2 kmh N 19.0 mph30.6 kmh 29.69 in1005.4 mb 0.00 in0.0 mm 0.00 in0.0 mm 0.17 in4.3 mm
10:30 PM 33.4°F0.8°C 33.2°F0.7°C 99% 13.2 mph NNW21.2 kmh NNW 17.4 mph28.0 kmh 29.69 in1005.4 mb 0.00 in0.0 mm 0.00 in0.0 mm 0.17 in4.3 mm
11:00 PM 33.3°F0.7°C 33.0°F0.6°C 99% 11.0 mph N17.7 kmh N 18.3 mph29.5 kmh 29.70 in1005.8 mb 0.00 in0.0 mm 0.00 in0.0 mm 0.17 in4.3 mm
11:30 PM 33.4°F0.8°C 33.2°F0.7°C 99% 10.4 mph NNW16.7 kmh NNW 14.5 mph23.3 kmh 29.71 in1006.1 mb 0.00 in0.0 mm 0.00 in0.0 mm 0.17 in4.3 mm